createdAt,value
2023-02-09T00:08:05.182Z,17.44
2023-02-09T00:09:05.225Z,17.41
2023-02-09T00:10:05.338Z,17.39
2023-02-09T00:11:05.347Z,17.38
2023-02-09T00:12:05.408Z,17.39
2023-02-09T00:13:05.457Z,17.41
2023-02-09T00:14:05.606Z,17.41
2023-02-09T00:15:05.579Z,17.39
2023-02-09T00:16:05.878Z,17.41
2023-02-09T00:17:05.675Z,17.39
2023-02-09T00:18:05.738Z,17.38
2023-02-09T00:19:05.794Z,17.39
2023-02-09T00:20:05.840Z,17.38
2023-02-09T00:21:05.898Z,17.37
2023-02-09T00:22:06.026Z,17.35
2023-02-09T00:23:06.015Z,17.38
2023-02-09T00:24:06.153Z,17.38
2023-02-09T00:25:06.133Z,17.35
2023-02-09T00:26:06.196Z,17.37
2023-02-09T00:27:06.262Z,17.38
2023-02-09T00:28:06.317Z,17.35
2023-02-09T00:29:06.413Z,17.37
2023-02-09T00:30:09.334Z,17.38
2023-02-09T00:31:06.479Z,17.38
2023-02-09T00:32:06.529Z,17.34
2023-02-09T00:33:06.492Z,17.38
2023-02-09T00:34:06.506Z,17.37
2023-02-09T00:35:07.329Z,17.34
2023-02-09T00:36:06.566Z,17.34
2023-02-09T00:37:06.577Z,17.35
2023-02-09T00:38:06.600Z,17.35
2023-02-09T00:39:06.621Z,17.35
2023-02-09T00:40:06.656Z,17.34
2023-02-09T00:41:06.653Z,17.37
2023-02-09T00:42:06.708Z,17.34
2023-02-09T00:43:06.690Z,17.35
2023-02-09T00:44:06.789Z,17.34
2023-02-09T00:45:06.743Z,17.33
2023-02-09T00:46:06.806Z,17.35
2023-02-09T00:47:06.842Z,17.37
2023-02-09T00:48:06.807Z,17.37
2023-02-09T00:49:06.820Z,17.33
2023-02-09T00:50:06.843Z,17.33
2023-02-09T00:51:06.873Z,17.34
2023-02-09T00:52:08.934Z,17.34
2023-02-09T00:53:06.906Z,17.34
2023-02-09T00:54:06.928Z,17.33
2023-02-09T00:55:06.945Z,17.31
2023-02-09T00:56:06.977Z,17.33
2023-02-09T00:57:06.997Z,17.27
2023-02-09T00:58:07.009Z,17.31
2023-02-09T00:59:07.094Z,17.33
2023-02-09T01:00:07.038Z,17.30
2023-02-09T01:01:07.177Z,17.33
2023-02-09T01:02:07.143Z,17.33
2023-02-09T01:03:07.099Z,17.28
2023-02-09T01:04:07.111Z,17.30
2023-02-09T01:05:07.134Z,17.30
2023-02-09T01:06:07.151Z,17.28
2023-02-09T01:07:07.180Z,17.28
2023-02-09T01:08:07.204Z,17.30
2023-02-09T01:09:07.229Z,17.30
2023-02-09T01:10:07.246Z,17.31
2023-02-09T01:11:07.274Z,17.30
2023-02-09T01:12:07.299Z,17.30
2023-02-09T01:13:07.332Z,17.28
2023-02-09T01:14:07.390Z,17.26
2023-02-09T01:15:07.337Z,17.27
2023-02-09T01:16:07.383Z,17.26
2023-02-09T01:17:07.409Z,17.26
2023-02-09T01:18:07.414Z,17.27
2023-02-09T01:19:08.333Z,17.26
2023-02-09T01:20:07.429Z,17.28
2023-02-09T01:21:07.838Z,17.23
2023-02-09T01:22:07.477Z,17.28
2023-02-09T01:23:07.841Z,17.24
2023-02-09T01:24:07.514Z,17.23
2023-02-09T01:25:07.533Z,17.26
2023-02-09T01:26:07.547Z,17.21
2023-02-09T01:27:07.568Z,17.21
2023-02-09T01:28:07.610Z,17.26
2023-02-09T01:29:07.612Z,17.23
2023-02-09T01:30:07.632Z,17.23
2023-02-09T01:31:07.739Z,17.26
2023-02-09T01:32:07.739Z,17.21
2023-02-09T01:33:07.693Z,17.26
2023-02-09T01:34:07.716Z,17.24
2023-02-09T01:35:08.337Z,17.24
2023-02-09T01:36:07.749Z,17.23
2023-02-09T01:37:07.772Z,17.21
2023-02-09T01:38:07.803Z,17.23
2023-02-09T01:39:07.833Z,17.21
2023-02-09T01:40:07.848Z,17.21
2023-02-09T01:41:07.878Z,17.23
2023-02-09T01:42:07.891Z,17.23
2023-02-09T01:43:07.909Z,17.26
2023-02-09T01:44:07.937Z,17.23
2023-02-09T01:45:07.960Z,17.20
2023-02-09T01:46:08.088Z,17.20
2023-02-09T01:47:08.008Z,17.20
2023-02-09T01:48:08.029Z,17.17
2023-02-09T01:49:08.047Z,17.21
2023-02-09T01:50:08.060Z,17.20
2023-02-09T01:51:08.155Z,17.20
2023-02-09T01:52:08.116Z,17.20
2023-02-09T01:53:08.184Z,17.20
2023-02-09T01:54:08.258Z,17.17
2023-02-09T01:55:08.328Z,17.19
2023-02-09T01:56:08.387Z,17.19
2023-02-09T01:57:08.447Z,17.21
2023-02-09T01:58:08.524Z,17.16
2023-02-09T01:59:08.588Z,17.17
2023-02-09T02:00:08.668Z,17.16
2023-02-09T02:01:09.358Z,17.14
2023-02-09T02:02:08.812Z,17.14
2023-02-09T02:03:08.903Z,17.16
2023-02-09T02:04:08.939Z,17.14
2023-02-09T04:19:45.297Z,17.09
2023-02-09T04:27:45.160Z,17.14
2023-02-09T04:28:45.229Z,17.13
2023-02-09T04:29:45.293Z,17.13
2023-02-09T04:30:45.747Z,17.11
2023-02-09T04:31:45.464Z,17.11
2023-02-09T04:32:45.474Z,17.11
2023-02-09T04:33:45.549Z,17.11
2023-02-09T04:34:45.644Z,17.16
2023-02-09T04:35:45.806Z,17.13
2023-02-09T04:36:45.697Z,17.13
2023-02-09T04:37:45.768Z,17.09
2023-02-09T04:38:45.829Z,17.13
2023-02-09T04:39:45.887Z,17.11
2023-02-09T04:40:46.284Z,17.11
2023-02-09T04:41:46.011Z,17.10
2023-02-09T04:42:46.071Z,17.09
2023-02-09T04:43:46.168Z,17.11
2023-02-09T04:44:46.222Z,17.11
2023-02-09T04:45:46.285Z,17.13
2023-02-09T04:46:46.338Z,17.10
2023-02-09T04:47:46.398Z,17.10
2023-02-09T04:48:46.444Z,17.10
2023-02-09T04:50:46.818Z,17.05
2023-02-09T04:51:47.296Z,17.06
2023-02-09T05:22:50.140Z,17.02
2023-02-09T05:23:48.548Z,16.99
2023-02-09T05:24:48.701Z,17.00
2023-02-09T05:25:48.664Z,17.09
2023-02-09T05:26:48.741Z,17.05
2023-02-09T05:27:48.807Z,17.06
2023-02-09T05:28:48.852Z,17.07
2023-02-09T05:29:48.910Z,17.02
2023-02-09T05:30:49.194Z,17.03
2023-02-09T05:31:49.048Z,17.00
2023-02-09T05:32:49.078Z,17.05
2023-02-09T05:33:49.219Z,17.06
2023-02-09T05:34:49.191Z,17.02
2023-02-09T05:35:49.253Z,17.02
2023-02-09T05:36:49.324Z,17.00
2023-02-09T05:37:49.396Z,17.02
2023-02-09T05:38:49.450Z,16.97
2023-02-09T05:39:49.506Z,16.97
2023-02-09T05:40:49.984Z,17.02
2023-02-09T05:41:49.654Z,17.00
2023-02-09T05:42:49.690Z,17.00
2023-02-09T05:43:49.763Z,16.96
2023-02-09T05:44:49.832Z,16.97
2023-02-09T05:45:50.948Z,16.99
2023-02-09T05:46:49.956Z,16.99
2023-02-09T05:47:50.026Z,17.00
2023-02-09T05:48:50.074Z,16.99
2023-02-09T05:49:50.137Z,17.00
2023-02-09T05:50:50.208Z,16.97
2023-02-09T05:51:50.253Z,16.97
2023-02-09T05:52:50.325Z,17.00
2023-02-09T05:53:50.395Z,16.97
2023-02-09T05:54:50.464Z,16.99
2023-02-09T05:55:50.521Z,17.00
2023-02-09T05:56:50.815Z,16.97
2023-02-09T05:57:50.651Z,16.97
2023-02-09T05:58:50.717Z,16.99
2023-02-09T05:59:50.769Z,16.99
2023-02-09T06:00:50.830Z,17.00
2023-02-09T06:01:51.314Z,16.97
2023-02-09T06:02:50.961Z,16.99
2023-02-09T06:03:51.169Z,16.97
2023-02-09T06:04:51.107Z,16.97
2023-02-09T06:05:51.811Z,16.94
2023-02-09T06:06:51.239Z,16.96
2023-02-09T06:07:51.373Z,16.99
2023-02-09T06:08:52.320Z,16.97
2023-02-09T06:09:51.446Z,16.97
2023-02-09T06:10:51.507Z,16.96
2023-02-09T06:11:51.573Z,16.96
2023-02-09T06:12:51.634Z,16.96
2023-02-09T06:13:51.711Z,16.96
2023-02-09T06:14:51.827Z,16.97
2023-02-09T06:15:51.862Z,16.96
2023-02-09T06:16:51.909Z,16.96
2023-02-09T06:17:51.980Z,16.97
2023-02-09T06:18:52.178Z,16.99
2023-02-09T06:19:52.106Z,17.00
2023-02-09T06:20:52.196Z,17.05
2023-02-09T06:21:52.236Z,17.07
2023-02-09T06:22:52.303Z,17.14
2023-02-09T06:23:52.339Z,16.82
2023-02-09T06:24:52.405Z,16.68
2023-02-09T06:25:52.478Z,16.33
2023-02-09T06:26:52.582Z,15.93
2023-02-09T06:27:52.698Z,15.43
2023-02-09T06:28:52.780Z,15.16
2023-02-09T06:29:52.874Z,14.78
2023-02-09T06:30:53.895Z,14.36
2023-02-09T06:31:53.279Z,14.36
2023-02-09T06:32:53.247Z,14.24
2023-02-09T06:33:54.390Z,14.23
2023-02-09T06:34:55.254Z,14.34
2023-02-09T06:35:53.618Z,14.51
2023-02-09T06:36:53.664Z,14.65
2023-02-09T06:37:53.738Z,14.83
2023-02-09T06:38:53.887Z,15.03
2023-02-09T06:40:54.016Z,15.37
2023-02-09T07:02:55.179Z,17.52
2023-02-09T07:03:55.223Z,17.52
2023-02-09T07:04:55.302Z,17.65
2023-02-09T07:15:56.417Z,18.34
2023-02-09T07:16:55.845Z,18.35
2023-02-09T07:17:55.841Z,18.38
2023-02-09T07:18:55.897Z,18.34
2023-02-09T07:19:55.899Z,18.38
2023-02-09T07:20:55.904Z,18.43
2023-02-09T07:21:55.925Z,18.45
2023-02-09T07:22:55.987Z,18.45
2023-02-09T07:39:55.903Z,18.52
2023-02-09T07:44:55.927Z,18.59
2023-02-09T07:45:55.862Z,18.61
2023-02-09T07:46:55.883Z,18.62
2023-02-09T07:47:55.830Z,18.61
2023-02-09T07:48:58.928Z,18.61
2023-02-09T07:49:55.805Z,18.55
2023-02-09T07:50:55.789Z,18.58
2023-02-09T07:51:55.784Z,18.58
2023-02-09T07:52:55.767Z,18.66
2023-02-09T07:53:55.750Z,18.68
2023-02-09T07:54:55.733Z,18.75
2023-02-09T07:55:56.355Z,18.75
2023-02-09T07:56:55.695Z,18.78
2023-02-09T07:57:55.696Z,18.85
2023-02-09T07:58:55.697Z,18.87
2023-02-09T07:59:55.679Z,18.90
2023-02-09T08:00:55.660Z,18.92
2023-02-09T08:01:55.767Z,18.99
2023-02-09T08:02:55.856Z,18.99
2023-02-09T08:03:57.382Z,19.02
2023-02-09T08:04:55.675Z,19.06
2023-02-09T08:05:55.622Z,19.02
2023-02-09T08:06:55.616Z,18.99
2023-02-09T08:07:55.604Z,18.96
2023-02-09T08:09:56.344Z,18.85
2023-02-09T08:10:55.576Z,18.82
2023-02-09T08:11:55.584Z,18.78
2023-02-09T08:12:55.556Z,18.72
2023-02-09T08:13:55.554Z,18.72
2023-02-09T08:14:55.539Z,18.71
2023-02-09T08:15:56.419Z,18.69
2023-02-09T08:16:55.595Z,18.87
2023-02-09T08:17:55.524Z,18.83
2023-02-09T08:18:55.514Z,18.90
2023-02-09T08:19:55.509Z,18.92
2023-02-09T08:20:55.504Z,18.89
2023-02-09T08:21:55.500Z,18.87
2023-02-09T08:22:55.494Z,18.79
2023-02-09T08:33:55.410Z,18.09
2023-02-09T08:39:55.391Z,17.88
2023-02-09T11:38:05.210Z,17.52
2023-02-09T11:39:05.205Z,17.49
2023-02-09T11:40:05.264Z,17.48
2023-02-09T11:41:05.336Z,17.49
2023-02-09T11:42:05.492Z,17.48
2023-02-09T11:43:05.481Z,17.47
2023-02-09T11:44:05.561Z,17.45
2023-02-09T11:45:08.626Z,17.45
2023-02-09T11:46:05.723Z,17.45
2023-02-09T11:47:05.675Z,17.42
2023-02-09T11:48:05.666Z,17.41
2023-02-09T11:49:05.680Z,17.39
2023-02-09T11:50:05.720Z,17.39
2023-02-09T11:51:05.727Z,17.37
2023-02-09T11:52:05.797Z,17.41
2023-02-09T11:53:05.741Z,17.38
2023-02-09T11:54:05.754Z,17.39
2023-02-09T11:55:05.819Z,17.39
2023-02-09T11:56:05.785Z,17.41
2023-02-09T11:57:05.817Z,17.42
2023-02-09T11:58:05.815Z,17.38
2023-02-09T11:59:05.837Z,17.39
2023-02-09T12:00:05.852Z,17.41
2023-02-09T12:01:15.110Z,17.41
2023-02-09T12:02:06.881Z,17.37
2023-02-09T12:03:05.930Z,17.42
2023-02-09T12:04:05.895Z,17.41
2023-02-09T12:05:05.927Z,17.42
2023-02-09T12:06:05.941Z,17.38
2023-02-09T12:07:05.948Z,17.38
2023-02-09T12:08:05.956Z,17.38
2023-02-09T12:09:06.016Z,17.39
2023-02-09T12:10:05.969Z,17.37
2023-02-09T12:11:06.003Z,17.37
2023-02-09T12:12:06.088Z,17.39
2023-02-09T12:13:06.154Z,17.38
2023-02-09T12:14:06.222Z,17.39
2023-02-09T12:15:06.296Z,17.39
2023-02-09T12:16:06.379Z,17.34
2023-02-09T12:17:06.384Z,17.34
2023-02-09T12:18:07.410Z,17.37
2023-02-09T12:19:06.617Z,17.31
2023-02-09T12:20:06.919Z,17.30
2023-02-09T12:21:06.661Z,17.33
2023-02-09T12:22:06.745Z,17.33
2023-02-09T12:23:06.793Z,17.30
2023-02-09T12:24:06.862Z,17.28
2023-02-09T12:25:06.929Z,17.33
2023-02-09T12:26:06.994Z,17.28
2023-02-09T12:27:07.092Z,17.27
2023-02-09T12:28:07.249Z,17.27
2023-02-09T12:29:07.222Z,17.26
2023-02-09T12:30:07.321Z,17.27
2023-02-09T12:31:07.514Z,17.26
2023-02-09T12:32:07.488Z,17.24
2023-02-09T12:33:07.538Z,17.21
2023-02-09T12:34:07.629Z,17.26
2023-02-09T12:35:07.683Z,17.21
2023-02-09T12:36:07.753Z,17.24
2023-02-09T12:37:07.836Z,17.21
2023-02-09T12:38:07.899Z,17.19
2023-02-09T12:39:07.980Z,17.20
2023-02-09T12:40:08.128Z,17.21
2023-02-09T12:41:08.112Z,17.19
2023-02-09T12:42:08.174Z,17.21
2023-02-09T12:43:08.284Z,17.20
2023-02-09T12:44:08.311Z,17.16
2023-02-09T13:35:10.895Z,17.51
2023-02-09T16:22:16.958Z,17.94
2023-02-09T17:37:13.788Z,18.13
2023-02-09T17:43:14.010Z,18.17
2023-02-09T17:44:24.130Z,18.16
2023-02-09T17:46:14.131Z,18.16
2023-02-09T17:47:14.038Z,18.13
2023-02-09T17:48:14.028Z,18.18
2023-02-09T17:49:14.008Z,18.16
2023-02-09T17:50:13.983Z,18.14
2023-02-09T17:51:13.979Z,18.17
2023-02-09T17:52:13.983Z,18.17
2023-02-09T17:53:13.981Z,18.16
2023-02-09T17:54:13.999Z,18.14
2023-02-09T17:55:14.038Z,18.17
2023-02-09T17:56:16.329Z,18.13
2023-02-09T17:57:14.234Z,18.11
2023-02-09T17:58:14.300Z,18.14
2023-02-09T17:59:14.258Z,18.16
2023-02-09T18:00:14.303Z,18.17
2023-02-09T18:01:14.441Z,18.18
2023-02-09T18:02:14.379Z,18.20
2023-02-09T18:03:14.606Z,18.17
2023-02-09T18:04:14.423Z,18.17
2023-02-09T18:05:14.440Z,18.16
2023-02-09T18:06:15.512Z,18.16
2023-02-09T18:07:14.546Z,18.16
2023-02-09T18:08:14.592Z,18.20
2023-02-09T18:09:14.567Z,18.17
2023-02-09T18:10:14.610Z,18.20
2023-02-09T18:11:14.637Z,18.20
2023-02-09T18:12:14.660Z,18.18
2023-02-09T18:13:14.684Z,18.17
2023-02-09T18:14:14.722Z,18.20
2023-02-09T18:15:14.775Z,18.18
2023-02-09T18:16:14.804Z,18.18
2023-02-09T18:17:14.855Z,18.20
2023-02-09T18:18:14.939Z,18.17
2023-02-09T18:19:15.050Z,18.18
2023-02-09T18:20:15.063Z,18.17
2023-02-09T18:21:15.027Z,18.20
2023-02-09T18:22:15.078Z,18.18
2023-02-09T18:23:15.288Z,18.17
2023-02-09T18:24:15.176Z,18.17
2023-02-09T18:25:15.233Z,18.21
2023-02-09T18:26:15.344Z,18.18
2023-02-09T18:27:15.328Z,18.21
2023-02-09T18:28:15.445Z,18.26
2023-02-09T18:29:15.425Z,18.23
2023-02-09T18:30:15.436Z,18.26
2023-02-09T18:31:15.640Z,18.26
2023-02-09T18:32:15.555Z,18.28
2023-02-09T18:33:15.596Z,18.27
2023-02-09T18:34:15.668Z,18.26
2023-02-09T18:35:15.730Z,18.23
2023-02-09T18:36:16.504Z,18.27
2023-02-09T18:37:15.826Z,18.28
2023-02-09T18:38:15.839Z,18.26
2023-02-09T18:39:15.879Z,18.26
2023-02-09T18:40:15.903Z,18.26
2023-02-09T18:41:15.941Z,18.23
2023-02-09T18:42:15.990Z,18.26
2023-02-09T18:43:17.020Z,18.24
2023-02-09T18:44:16.086Z,18.23
2023-02-09T18:45:16.165Z,18.24
2023-02-09T18:46:16.214Z,18.24
2023-02-09T18:47:16.222Z,18.24
2023-02-09T18:48:16.298Z,18.27
2023-02-09T18:49:16.319Z,18.24
2023-02-09T18:50:16.443Z,18.27
2023-02-09T18:51:16.382Z,18.24
2023-02-09T18:52:16.417Z,18.30
2023-02-09T18:53:16.461Z,18.26
2023-02-09T18:54:16.526Z,18.28
2023-02-09T18:55:16.574Z,18.30
2023-02-09T18:56:16.637Z,18.27
2023-02-09T18:57:16.683Z,18.33
2023-02-09T18:58:16.724Z,18.28
2023-02-09T18:59:16.802Z,18.30
2023-02-09T19:00:16.842Z,18.28
2023-02-09T19:01:16.885Z,18.28
2023-02-09T19:02:16.982Z,18.33
2023-02-09T19:03:16.996Z,18.34
2023-02-09T19:04:17.090Z,18.33
2023-02-09T19:05:17.088Z,18.31
2023-02-09T19:06:17.089Z,18.33
2023-02-09T19:07:17.213Z,18.34
2023-02-09T19:08:17.194Z,18.28
2023-02-09T19:09:17.290Z,18.31
2023-02-09T19:10:17.264Z,18.31
2023-02-09T19:11:17.522Z,18.30
2023-02-09T19:12:17.366Z,18.33
2023-02-09T19:13:17.418Z,18.34
2023-02-09T19:14:17.457Z,18.33
2023-02-09T19:15:17.494Z,18.34
2023-02-09T19:16:17.587Z,18.31
2023-02-09T19:17:18.529Z,18.33
2023-02-09T19:18:17.622Z,18.33
2023-02-09T19:19:17.682Z,18.31
2023-02-09T19:20:17.725Z,18.26
2023-02-09T19:21:17.761Z,18.27
2023-02-09T19:22:17.799Z,18.33
2023-02-09T19:23:17.857Z,18.31
2023-02-09T19:24:17.904Z,18.31
2023-02-09T19:25:17.951Z,18.33
2023-02-09T19:26:18.011Z,18.30
2023-02-09T19:27:18.058Z,18.31
2023-02-09T19:28:18.221Z,18.31
2023-02-09T19:29:18.159Z,18.30
2023-02-09T19:30:18.212Z,18.31
2023-02-09T19:31:18.345Z,18.31
2023-02-09T19:32:18.317Z,18.30
2023-02-09T19:33:18.353Z,18.30
2023-02-09T19:34:18.417Z,18.33
2023-02-09T19:35:18.494Z,18.34
2023-02-09T19:36:18.516Z,18.31
2023-02-09T19:37:18.554Z,18.33
2023-02-09T19:38:18.618Z,18.34
2023-02-09T19:39:18.660Z,18.33
2023-02-09T19:40:18.714Z,18.34
2023-02-09T19:41:18.753Z,18.33
2023-02-09T19:42:18.816Z,18.33
2023-02-09T19:43:20.352Z,18.30
2023-02-09T19:44:18.877Z,18.37
2023-02-09T19:45:18.932Z,18.38
2023-02-09T19:46:18.960Z,18.41
2023-02-09T19:47:18.996Z,18.38
2023-02-09T19:48:19.029Z,18.40
2023-02-09T19:49:19.099Z,18.41
2023-02-09T19:50:19.123Z,18.40
2023-02-09T19:51:19.180Z,18.40
2023-02-09T19:52:19.205Z,18.40
2023-02-09T19:53:19.275Z,18.40
2023-02-09T19:54:19.305Z,18.41
2023-02-09T19:55:19.351Z,18.38
2023-02-09T19:56:19.424Z,18.34
2023-02-09T19:57:19.493Z,18.35
2023-02-09T19:58:20.022Z,18.35
2023-02-09T19:59:19.530Z,18.38
2023-02-09T20:00:19.591Z,18.38
2023-02-09T20:01:19.672Z,18.35
2023-02-09T20:02:19.684Z,18.35
2023-02-09T20:03:19.817Z,18.35
2023-02-09T20:04:19.776Z,18.33
2023-02-09T20:05:19.819Z,18.33
2023-02-09T20:06:19.866Z,18.35
2023-02-09T20:07:19.919Z,18.35
2023-02-09T20:08:19.956Z,18.41
2023-02-09T20:09:20.009Z,18.41
2023-02-09T20:10:20.063Z,18.44
2023-02-09T20:11:20.099Z,18.41
2023-02-09T20:12:20.161Z,18.38
2023-02-09T20:13:20.184Z,18.35
2023-02-09T20:14:20.240Z,18.37
2023-02-09T20:15:20.279Z,18.38
2023-02-09T20:16:20.413Z,18.37
2023-02-09T20:17:20.475Z,18.38
2023-02-09T20:18:20.404Z,18.35
2023-02-09T20:19:20.472Z,18.35
2023-02-09T20:20:20.538Z,18.40
2023-02-09T20:21:20.639Z,18.44
2023-02-09T20:22:20.608Z,18.40
2023-02-09T20:23:20.628Z,18.41
2023-02-09T20:24:20.689Z,18.38
2023-02-09T20:25:20.727Z,18.38
2023-02-09T20:26:20.755Z,18.37
2023-02-09T20:27:20.835Z,18.43
2023-02-09T20:28:20.867Z,18.38
2023-02-09T20:29:20.883Z,18.38
2023-02-09T20:30:20.935Z,18.38
2023-02-09T20:31:21.100Z,18.41
2023-02-09T20:32:21.010Z,18.41
2023-02-09T20:33:21.041Z,18.43
2023-02-09T20:34:21.085Z,18.41
2023-02-09T20:35:21.191Z,18.43
2023-02-09T20:36:22.012Z,18.44
2023-02-09T20:37:21.227Z,18.47
2023-02-09T20:38:21.282Z,18.45
2023-02-09T20:39:21.408Z,18.45
2023-02-09T20:40:21.368Z,18.41
2023-02-09T20:41:21.407Z,18.43
2023-02-09T20:42:21.436Z,18.44
2023-02-09T20:43:21.465Z,18.44
2023-02-09T20:44:21.516Z,18.44
2023-02-09T20:45:21.569Z,18.43
2023-02-09T20:46:21.602Z,18.43
2023-02-09T20:47:21.642Z,18.43
2023-02-09T20:48:21.701Z,18.45
2023-02-09T20:49:21.728Z,18.44
2023-02-09T20:50:21.775Z,18.40
2023-02-09T20:51:21.822Z,18.38
2023-02-09T20:52:21.892Z,18.40
2023-02-09T20:53:21.917Z,18.41
2023-02-09T20:54:21.958Z,18.41
2023-02-09T20:55:22.005Z,18.44
2023-02-09T20:56:23.897Z,18.40
2023-02-09T20:57:22.091Z,18.43
2023-02-09T20:58:23.038Z,18.43
2023-02-09T20:59:22.166Z,18.41
2023-02-09T21:00:22.224Z,18.43
2023-02-09T21:01:22.323Z,18.41
2023-02-09T21:02:22.344Z,18.40
2023-02-09T21:03:22.336Z,18.40
2023-02-09T21:04:22.412Z,18.43
2023-02-09T21:05:22.450Z,18.40
2023-02-09T21:06:22.473Z,18.41
2023-02-09T21:07:22.516Z,18.41
2023-02-09T21:08:22.912Z,18.41
2023-02-09T21:09:22.598Z,18.40
2023-02-09T21:10:22.652Z,18.41
2023-02-09T21:11:22.742Z,18.40
2023-02-09T21:12:22.733Z,18.41
2023-02-09T21:13:22.771Z,18.37
2023-02-09T21:14:27.812Z,18.40
2023-02-09T21:15:23.800Z,18.40
2023-02-09T21:16:22.821Z,18.44
2023-02-09T21:17:22.779Z,18.40
2023-02-09T21:18:22.764Z,18.41
2023-02-09T21:19:22.852Z,18.47
2023-02-09T21:20:22.753Z,18.44
2023-02-09T21:21:22.780Z,18.44
2023-02-09T21:22:23.541Z,18.43
2023-02-09T21:23:22.688Z,18.41
2023-02-09T21:24:22.697Z,18.40
2023-02-09T21:25:22.721Z,18.41
2023-02-09T21:26:22.764Z,18.40
2023-02-09T21:27:22.807Z,18.40
2023-02-09T21:28:22.991Z,18.41
2023-02-09T21:29:22.971Z,18.38
2023-02-09T21:30:22.948Z,18.41
2023-02-09T21:31:23.024Z,18.37
2023-02-09T21:32:23.024Z,18.41
2023-02-09T21:33:23.058Z,18.44
2023-02-09T21:34:23.109Z,18.43
2023-02-09T21:35:23.138Z,18.41
2023-02-09T21:36:24.107Z,18.44
2023-02-09T21:37:23.219Z,18.44
2023-02-09T21:38:23.259Z,18.43
2023-02-09T21:39:23.304Z,18.44
2023-02-09T21:40:23.342Z,18.44
2023-02-09T21:41:23.393Z,18.45
2023-02-09T21:42:23.429Z,18.44
2023-02-09T21:43:23.484Z,18.45
2023-02-09T21:44:23.528Z,18.41
2023-02-09T21:45:23.545Z,18.45
2023-02-09T21:46:23.581Z,18.47
2023-02-09T21:47:23.597Z,18.41
2023-02-09T21:48:23.654Z,18.40
2023-02-09T21:49:23.695Z,18.44
2023-02-09T21:50:24.052Z,18.41
2023-02-09T21:51:23.780Z,18.41
2023-02-09T21:52:23.827Z,18.41
2023-02-09T21:53:23.856Z,18.43
2023-02-09T21:54:23.898Z,18.41
2023-02-09T21:55:24.029Z,18.43
2023-02-09T21:56:23.983Z,18.44
2023-02-09T21:57:24.028Z,18.44
2023-02-09T21:58:24.059Z,18.48
2023-02-09T21:59:24.102Z,18.43
2023-02-09T22:00:24.197Z,18.45
2023-02-09T22:01:24.199Z,18.45
2023-02-09T22:02:24.259Z,18.43
2023-02-09T22:03:24.262Z,18.41
2023-02-09T22:04:24.418Z,18.38
2023-02-09T22:05:24.358Z,18.40
2023-02-09T22:06:24.396Z,18.43
2023-02-09T22:07:24.439Z,18.43
2023-02-09T22:08:24.487Z,18.44
2023-02-09T22:09:24.523Z,18.44
2023-02-09T22:10:24.554Z,18.45
2023-02-09T22:11:24.608Z,18.43
2023-02-09T22:12:24.633Z,18.47
2023-02-09T22:13:25.549Z,18.48
2023-02-09T22:14:24.776Z,18.45
2023-02-09T22:15:24.748Z,18.44
2023-02-09T22:16:25.633Z,18.47
2023-02-09T22:17:24.840Z,18.48
2023-02-09T22:18:24.867Z,18.50
2023-02-09T22:19:24.930Z,18.48
2023-02-09T22:20:24.977Z,18.47
2023-02-09T22:21:25.095Z,18.47
2023-02-09T22:22:25.560Z,18.44
2023-02-09T22:23:25.103Z,18.45
2023-02-09T22:24:25.136Z,18.48
2023-02-09T22:25:25.247Z,18.47
2023-02-09T22:26:25.284Z,18.51
2023-02-09T22:27:25.268Z,18.45
2023-02-09T22:28:25.333Z,18.44
2023-02-09T22:29:25.340Z,18.43
2023-02-09T22:30:25.444Z,18.43
2023-02-09T22:31:25.427Z,18.41
2023-02-09T22:32:25.472Z,18.40
2023-02-09T22:33:25.525Z,18.38
2023-02-09T22:34:25.561Z,18.40
2023-02-09T22:35:25.594Z,18.40
2023-02-09T22:36:26.547Z,18.40
2023-02-09T22:37:25.653Z,18.40
2023-02-09T22:38:25.704Z,18.38
2023-02-09T22:39:25.742Z,18.40
2023-02-09T22:40:25.779Z,18.44
2023-02-09T22:41:25.810Z,18.41
2023-02-09T22:42:25.847Z,18.41
2023-02-09T22:43:25.872Z,18.41
2023-02-09T22:44:26.707Z,18.40
2023-02-09T22:45:25.961Z,18.41
2023-02-09T22:46:26.052Z,18.41
2023-02-09T22:47:26.037Z,18.43
2023-02-09T22:48:26.108Z,18.38
2023-02-09T22:49:26.131Z,18.45
2023-02-09T22:50:26.164Z,18.41
2023-02-09T22:51:26.276Z,18.43
2023-02-09T22:52:26.227Z,18.40
2023-02-09T22:53:26.280Z,18.40
2023-02-09T22:54:26.322Z,18.40
2023-02-09T22:55:26.367Z,18.38
2023-02-09T22:56:27.085Z,18.43
2023-02-09T22:57:26.449Z,18.38
2023-02-09T22:58:26.521Z,18.41
2023-02-09T22:59:26.536Z,18.43
2023-02-09T23:00:26.588Z,18.44
2023-02-09T23:01:27.142Z,18.43
2023-02-09T23:02:26.666Z,18.43
2023-02-09T23:03:26.712Z,18.44
2023-02-09T23:04:26.738Z,18.43
2023-02-09T23:05:26.775Z,18.44
2023-02-09T23:06:26.831Z,18.40
2023-02-09T23:07:26.859Z,18.43
2023-02-09T23:08:26.887Z,18.43
2023-02-09T23:09:26.933Z,18.41
2023-02-09T23:10:26.997Z,18.40
2023-02-09T23:11:27.056Z,18.41
2023-02-09T23:12:27.077Z,18.37
2023-02-09T23:13:27.125Z,18.37
2023-02-09T23:14:27.162Z,18.40
2023-02-09T23:15:27.214Z,18.37
2023-02-09T23:16:27.602Z,18.37
2023-02-09T23:17:27.316Z,18.35
2023-02-09T23:18:27.357Z,18.38
2023-02-09T23:19:27.403Z,18.38
2023-02-09T23:20:27.463Z,18.38
2023-02-09T23:21:27.555Z,18.40
2023-02-09T23:22:27.532Z,18.38
2023-02-09T23:23:27.576Z,18.40
2023-02-09T23:24:27.621Z,18.40
2023-02-09T23:25:27.662Z,18.41
2023-02-09T23:26:27.700Z,18.41
2023-02-09T23:27:27.750Z,18.41
2023-02-09T23:28:27.857Z,18.38
2023-02-09T23:29:27.825Z,18.43
2023-02-09T23:30:27.868Z,18.41
2023-02-09T23:31:27.969Z,18.41
2023-02-09T23:32:27.955Z,18.40
2023-02-09T23:33:28.035Z,18.45
2023-02-09T23:34:28.048Z,18.43
2023-02-09T23:35:28.077Z,18.40
2023-02-09T23:36:28.186Z,18.43
2023-02-09T23:37:37.201Z,18.41
2023-02-09T23:39:28.131Z,18.41
2023-02-09T23:40:28.128Z,18.38
2023-02-09T23:41:28.141Z,18.38
